sensor_id;sensor_type;location;lat;lon;timestamp;P1;durP1;ratioP1;P2;durP2;ratioP2
7659;SDS011;3872;47.902;8.162;2023-05-21T00:00:43;11.30;;;5.50;;
7659;SDS011;3872;47.902;8.162;2023-05-21T00:03:09;10.03;;;5.40;;
7659;SDS011;3872;47.902;8.162;2023-05-21T00:05:38;10.20;;;5.93;;
7659;SDS011;3872;47.902;8.162;2023-05-21T00:08:06;8.23;;;5.03;;
7659;SDS011;3872;47.902;8.162;2023-05-21T00:10:32;8.83;;;5.40;;
7659;SDS011;3872;47.902;8.162;2023-05-21T00:12:59;9.50;;;5.27;;
7659;SDS011;3872;47.902;8.162;2023-05-21T00:15:25;12.30;;;6.97;;
7659;SDS011;3872;47.902;8.162;2023-05-21T00:17:52;9.70;;;5.70;;
7659;SDS011;3872;47.902;8.162;2023-05-21T00:20:18;9.50;;;5.90;;
7659;SDS011;3872;47.902;8.162;2023-05-21T00:22:45;15.80;;;5.87;;
7659;SDS011;3872;47.902;8.162;2023-05-21T00:25:13;9.60;;;6.30;;
7659;SDS011;3872;47.902;8.162;2023-05-21T00:27:40;9.60;;;5.60;;
7659;SDS011;3872;47.902;8.162;2023-05-21T00:30:07;9.73;;;5.80;;
7659;SDS011;3872;47.902;8.162;2023-05-21T00:32:34;10.80;;;6.53;;
7659;SDS011;3872;47.902;8.162;2023-05-21T00:35:00;10.03;;;6.20;;
7659;SDS011;3872;47.902;8.162;2023-05-21T00:37:27;12.80;;;6.03;;
7659;SDS011;3872;47.902;8.162;2023-05-21T00:39:58;9.00;;;6.10;;
7659;SDS011;3872;47.902;8.162;2023-05-21T00:42:26;10.60;;;6.20;;
7659;SDS011;3872;47.902;8.162;2023-05-21T00:44:54;9.83;;;6.03;;
7659;SDS011;3872;47.902;8.162;2023-05-21T00:47:21;12.33;;;7.67;;
7659;SDS011;3872;47.902;8.162;2023-05-21T00:49:48;12.43;;;7.33;;
7659;SDS011;3872;47.902;8.162;2023-05-21T00:52:17;18.50;;;5.70;;
7659;SDS011;3872;47.902;8.162;2023-05-21T00:54:45;11.90;;;6.30;;
7659;SDS011;3872;47.902;8.162;2023-05-21T00:57:12;11.00;;;6.37;;
7659;SDS011;3872;47.902;8.162;2023-05-21T00:59:40;10.97;;;6.50;;
7659;SDS011;3872;47.902;8.162;2023-05-21T01:02:07;10.53;;;5.90;;
7659;SDS011;3872;47.902;8.162;2023-05-21T01:04:33;10.30;;;6.10;;
7659;SDS011;3872;47.902;8.162;2023-05-21T01:07:01;10.47;;;6.00;;
7659;SDS011;3872;47.902;8.162;2023-05-21T01:09:27;12.13;;;7.17;;
7659;SDS011;3872;47.902;8.162;2023-05-21T01:11:54;10.97;;;6.30;;
7659;SDS011;3872;47.902;8.162;2023-05-21T01:14:21;8.97;;;5.90;;
7659;SDS011;3872;47.902;8.162;2023-05-21T01:16:50;11.67;;;6.73;;
7659;SDS011;3872;47.902;8.162;2023-05-21T01:19:19;10.17;;;6.23;;
7659;SDS011;3872;47.902;8.162;2023-05-21T01:21:48;13.07;;;6.70;;
7659;SDS011;3872;47.902;8.162;2023-05-21T01:24:18;10.83;;;6.90;;
7659;SDS011;3872;47.902;8.162;2023-05-21T01:26:44;9.87;;;6.17;;
7659;SDS011;3872;47.902;8.162;2023-05-21T01:29:11;10.33;;;6.90;;
7659;SDS011;3872;47.902;8.162;2023-05-21T01:31:41;9.33;;;6.10;;
7659;SDS011;3872;47.902;8.162;2023-05-21T01:34:13;12.50;;;6.70;;
7659;SDS011;3872;47.902;8.162;2023-05-21T01:36:45;11.93;;;6.80;;
7659;SDS011;3872;47.902;8.162;2023-05-21T01:39:20;14.87;;;7.20;;
7659;SDS011;3872;47.902;8.162;2023-05-21T01:41:48;11.63;;;6.53;;
7659;SDS011;3872;47.902;8.162;2023-05-21T01:44:18;15.33;;;7.50;;
7659;SDS011;3872;47.902;8.162;2023-05-21T01:46:46;11.20;;;6.70;;
7659;SDS011;3872;47.902;8.162;2023-05-21T01:49:13;10.03;;;6.20;;
7659;SDS011;3872;47.902;8.162;2023-05-21T01:51:42;13.83;;;6.93;;
7659;SDS011;3872;47.902;8.162;2023-05-21T01:54:09;10.40;;;6.63;;
7659;SDS011;3872;47.902;8.162;2023-05-21T01:56:36;12.17;;;7.47;;
7659;SDS011;3872;47.902;8.162;2023-05-21T01:59:03;11.70;;;7.10;;
7659;SDS011;3872;47.902;8.162;2023-05-21T02:01:30;10.60;;;7.07;;
7659;SDS011;3872;47.902;8.162;2023-05-21T02:03:57;13.50;;;6.40;;
7659;SDS011;3872;47.902;8.162;2023-05-21T02:06:23;12.87;;;7.27;;
7659;SDS011;3872;47.902;8.162;2023-05-21T02:08:50;19.00;;;8.30;;
7659;SDS011;3872;47.902;8.162;2023-05-21T02:11:17;13.63;;;8.03;;
7659;SDS011;3872;47.902;8.162;2023-05-21T02:13:44;13.23;;;7.57;;
7659;SDS011;3872;47.902;8.162;2023-05-21T02:16:11;14.20;;;7.30;;
7659;SDS011;3872;47.902;8.162;2023-05-21T02:18:40;12.10;;;7.53;;
7659;SDS011;3872;47.902;8.162;2023-05-21T02:21:07;14.60;;;7.27;;
7659;SDS011;3872;47.902;8.162;2023-05-21T02:23:34;12.23;;;7.93;;
7659;SDS011;3872;47.902;8.162;2023-05-21T02:26:01;15.33;;;7.43;;
7659;SDS011;3872;47.902;8.162;2023-05-21T02:28:27;12.57;;;7.47;;
7659;SDS011;3872;47.902;8.162;2023-05-21T02:30:56;11.07;;;6.97;;
7659;SDS011;3872;47.902;8.162;2023-05-21T02:33:22;12.37;;;7.50;;
7659;SDS011;3872;47.902;8.162;2023-05-21T02:35:50;12.80;;;7.10;;
7659;SDS011;3872;47.902;8.162;2023-05-21T02:38:16;15.13;;;8.10;;
7659;SDS011;3872;47.902;8.162;2023-05-21T02:40:47;12.73;;;7.67;;
7659;SDS011;3872;47.902;8.162;2023-05-21T02:43:14;12.30;;;7.40;;
7659;SDS011;3872;47.902;8.162;2023-05-21T02:45:42;14.17;;;8.30;;
7659;SDS011;3872;47.902;8.162;2023-05-21T02:48:09;12.43;;;7.00;;
7659;SDS011;3872;47.902;8.162;2023-05-21T02:50:39;13.67;;;7.90;;
7659;SDS011;3872;47.902;8.162;2023-05-21T02:53:05;13.53;;;7.77;;
7659;SDS011;3872;47.902;8.162;2023-05-21T02:55:34;11.30;;;6.93;;
7659;SDS011;3872;47.902;8.162;2023-05-21T02:58:00;11.57;;;6.70;;
7659;SDS011;3872;47.902;8.162;2023-05-21T03:00:27;10.40;;;6.90;;
7659;SDS011;3872;47.902;8.162;2023-05-21T03:02:53;11.40;;;7.00;;
7659;SDS011;3872;47.902;8.162;2023-05-21T03:05:21;11.13;;;7.30;;
7659;SDS011;3872;47.902;8.162;2023-05-21T03:07:48;12.10;;;7.27;;
7659;SDS011;3872;47.902;8.162;2023-05-21T03:10:15;13.47;;;6.67;;
7659;SDS011;3872;47.902;8.162;2023-05-21T03:12:42;12.90;;;7.07;;
7659;SDS011;3872;47.902;8.162;2023-05-21T03:15:10;12.93;;;7.63;;
7659;SDS011;3872;47.902;8.162;2023-05-21T03:17:38;10.07;;;7.00;;
7659;SDS011;3872;47.902;8.162;2023-05-21T03:20:06;12.73;;;6.70;;
7659;SDS011;3872;47.902;8.162;2023-05-21T03:22:42;11.70;;;7.57;;
7659;SDS011;3872;47.902;8.162;2023-05-21T03:25:09;12.83;;;8.23;;
7659;SDS011;3872;47.902;8.162;2023-05-21T03:27:36;21.83;;;8.27;;
7659;SDS011;3872;47.902;8.162;2023-05-21T03:30:09;16.10;;;7.63;;
7659;SDS011;3872;47.902;8.162;2023-05-21T03:32:51;12.83;;;8.07;;
7659;SDS011;3872;47.902;8.162;2023-05-21T03:35:17;16.57;;;7.50;;
7659;SDS011;3872;47.902;8.162;2023-05-21T03:37:45;11.63;;;6.67;;
7659;SDS011;3872;47.902;8.162;2023-05-21T03:40:12;10.60;;;6.43;;
7659;SDS011;3872;47.902;8.162;2023-05-21T03:42:41;9.00;;;6.07;;
7659;SDS011;3872;47.902;8.162;2023-05-21T03:45:08;11.13;;;7.00;;
7659;SDS011;3872;47.902;8.162;2023-05-21T03:47:54;9.60;;;6.07;;
7659;SDS011;3872;47.902;8.162;2023-05-21T03:50:20;15.80;;;7.30;;
7659;SDS011;3872;47.902;8.162;2023-05-21T03:52:48;12.87;;;7.33;;
7659;SDS011;3872;47.902;8.162;2023-05-21T03:55:15;17.23;;;8.20;;
7659;SDS011;3872;47.902;8.162;2023-05-21T03:57:41;13.60;;;7.30;;
7659;SDS011;3872;47.902;8.162;2023-05-21T04:00:08;22.20;;;7.90;;
7659;SDS011;3872;47.902;8.162;2023-05-21T04:02:41;12.77;;;7.33;;
7659;SDS011;3872;47.902;8.162;2023-05-21T04:05:07;20.03;;;7.87;;
7659;SDS011;3872;47.902;8.162;2023-05-21T04:07:34;11.13;;;7.30;;
7659;SDS011;3872;47.902;8.162;2023-05-21T04:10:05;12.53;;;7.57;;
7659;SDS011;3872;47.902;8.162;2023-05-21T04:12:32;15.23;;;8.40;;
7659;SDS011;3872;47.902;8.162;2023-05-21T04:14:58;11.43;;;6.73;;
7659;SDS011;3872;47.902;8.162;2023-05-21T04:17:27;13.53;;;7.73;;
7659;SDS011;3872;47.902;8.162;2023-05-21T04:19:54;15.00;;;8.97;;
7659;SDS011;3872;47.902;8.162;2023-05-21T04:22:20;21.60;;;8.80;;
7659;SDS011;3872;47.902;8.162;2023-05-21T04:24:50;12.03;;;7.60;;
7659;SDS011;3872;47.902;8.162;2023-05-21T04:27:23;19.20;;;8.37;;
7659;SDS011;3872;47.902;8.162;2023-05-21T04:29:50;14.23;;;8.60;;
7659;SDS011;3872;47.902;8.162;2023-05-21T04:32:20;15.50;;;9.13;;
7659;SDS011;3872;47.902;8.162;2023-05-21T04:34:46;19.00;;;8.87;;
7659;SDS011;3872;47.902;8.162;2023-05-21T04:37:12;12.33;;;7.70;;
7659;SDS011;3872;47.902;8.162;2023-05-21T04:39:41;18.43;;;8.80;;
7659;SDS011;3872;47.902;8.162;2023-05-21T04:42:08;13.47;;;8.33;;
7659;SDS011;3872;47.902;8.162;2023-05-21T04:44:36;13.83;;;8.93;;
7659;SDS011;3872;47.902;8.162;2023-05-21T04:47:04;15.20;;;8.63;;
7659;SDS011;3872;47.902;8.162;2023-05-21T04:49:31;13.67;;;8.17;;
7659;SDS011;3872;47.902;8.162;2023-05-21T04:51:59;12.60;;;7.90;;
7659;SDS011;3872;47.902;8.162;2023-05-21T04:54:26;13.93;;;7.93;;
7659;SDS011;3872;47.902;8.162;2023-05-21T04:56:52;13.87;;;8.13;;
7659;SDS011;3872;47.902;8.162;2023-05-21T04:59:19;14.83;;;8.10;;
7659;SDS011;3872;47.902;8.162;2023-05-21T05:01:47;17.30;;;8.40;;
7659;SDS011;3872;47.902;8.162;2023-05-21T05:04:13;14.50;;;8.80;;
7659;SDS011;3872;47.902;8.162;2023-05-21T05:06:40;15.30;;;8.43;;
7659;SDS011;3872;47.902;8.162;2023-05-21T05:09:06;15.70;;;9.30;;
7659;SDS011;3872;47.902;8.162;2023-05-21T05:11:33;11.93;;;7.73;;
7659;SDS011;3872;47.902;8.162;2023-05-21T05:14:00;14.17;;;8.47;;
7659;SDS011;3872;47.902;8.162;2023-05-21T05:16:26;14.40;;;8.10;;
7659;SDS011;3872;47.902;8.162;2023-05-21T05:18:56;15.47;;;8.30;;
7659;SDS011;3872;47.902;8.162;2023-05-21T05:21:24;15.67;;;9.30;;
7659;SDS011;3872;47.902;8.162;2023-05-21T05:23:51;17.40;;;8.30;;
7659;SDS011;3872;47.902;8.162;2023-05-21T05:26:22;15.07;;;8.57;;
7659;SDS011;3872;47.902;8.162;2023-05-21T05:28:48;13.00;;;8.50;;
7659;SDS011;3872;47.902;8.162;2023-05-21T05:31:15;14.27;;;9.23;;
7659;SDS011;3872;47.902;8.162;2023-05-21T05:33:42;16.43;;;8.13;;
7659;SDS011;3872;47.902;8.162;2023-05-21T05:36:11;14.77;;;8.77;;
7659;SDS011;3872;47.902;8.162;2023-05-21T05:38:37;14.17;;;8.53;;
7659;SDS011;3872;47.902;8.162;2023-05-21T05:41:04;13.70;;;8.60;;
7659;SDS011;3872;47.902;8.162;2023-05-21T05:43:31;13.90;;;9.43;;
7659;SDS011;3872;47.902;8.162;2023-05-21T05:45:58;21.23;;;9.27;;
7659;SDS011;3872;47.902;8.162;2023-05-21T05:48:24;13.13;;;8.70;;
7659;SDS011;3872;47.902;8.162;2023-05-21T05:50:51;16.97;;;8.17;;
7659;SDS011;3872;47.902;8.162;2023-05-21T05:53:22;14.23;;;8.70;;
7659;SDS011;3872;47.902;8.162;2023-05-21T05:55:49;15.83;;;8.60;;
7659;SDS011;3872;47.902;8.162;2023-05-21T05:58:15;17.27;;;9.13;;
7659;SDS011;3872;47.902;8.162;2023-05-21T06:01:08;14.70;;;9.10;;
7659;SDS011;3872;47.902;8.162;2023-05-21T06:03:35;14.53;;;8.63;;
7659;SDS011;3872;47.902;8.162;2023-05-21T06:06:09;18.57;;;9.57;;
7659;SDS011;3872;47.902;8.162;2023-05-21T06:08:38;47.13;;;20.70;;
7659;SDS011;3872;47.902;8.162;2023-05-21T06:11:05;18.87;;;10.77;;
7659;SDS011;3872;47.902;8.162;2023-05-21T06:13:32;16.40;;;9.53;;
7659;SDS011;3872;47.902;8.162;2023-05-21T06:15:58;15.10;;;8.50;;
7659;SDS011;3872;47.902;8.162;2023-05-21T06:18:25;22.23;;;8.93;;
7659;SDS011;3872;47.902;8.162;2023-05-21T06:20:52;13.17;;;8.10;;
7659;SDS011;3872;47.902;8.162;2023-05-21T06:23:20;16.10;;;8.13;;
7659;SDS011;3872;47.902;8.162;2023-05-21T06:25:49;14.07;;;8.70;;
7659;SDS011;3872;47.902;8.162;2023-05-21T06:28:17;15.07;;;8.87;;
7659;SDS011;3872;47.902;8.162;2023-05-21T06:30:44;15.47;;;8.50;;
7659;SDS011;3872;47.902;8.162;2023-05-21T06:33:11;13.60;;;8.33;;
7659;SDS011;3872;47.902;8.162;2023-05-21T06:35:37;22.60;;;9.17;;
7659;SDS011;3872;47.902;8.162;2023-05-21T06:38:05;16.67;;;9.00;;
7659;SDS011;3872;47.902;8.162;2023-05-21T06:40:32;14.27;;;8.20;;
7659;SDS011;3872;47.902;8.162;2023-05-21T06:43:01;14.20;;;9.03;;
7659;SDS011;3872;47.902;8.162;2023-05-21T06:45:34;18.27;;;9.03;;
7659;SDS011;3872;47.902;8.162;2023-05-21T06:48:10;17.97;;;8.90;;
7659;SDS011;3872;47.902;8.162;2023-05-21T06:50:40;13.43;;;8.13;;
7659;SDS011;3872;47.902;8.162;2023-05-21T06:53:06;18.13;;;9.73;;
7659;SDS011;3872;47.902;8.162;2023-05-21T06:55:33;17.27;;;9.90;;
7659;SDS011;3872;47.902;8.162;2023-05-21T06:58:14;15.67;;;9.33;;
7659;SDS011;3872;47.902;8.162;2023-05-21T07:00:41;15.50;;;9.20;;
7659;SDS011;3872;47.902;8.162;2023-05-21T07:03:08;16.73;;;9.10;;
7659;SDS011;3872;47.902;8.162;2023-05-21T07:05:35;15.53;;;9.17;;
7659;SDS011;3872;47.902;8.162;2023-05-21T07:08:01;13.10;;;8.40;;
7659;SDS011;3872;47.902;8.162;2023-05-21T07:10:28;17.07;;;9.83;;
7659;SDS011;3872;47.902;8.162;2023-05-21T07:12:56;13.70;;;8.73;;
7659;SDS011;3872;47.902;8.162;2023-05-21T07:15:24;15.77;;;9.43;;
7659;SDS011;3872;47.902;8.162;2023-05-21T07:17:50;14.70;;;9.30;;
7659;SDS011;3872;47.902;8.162;2023-05-21T07:20:17;19.23;;;9.43;;
7659;SDS011;3872;47.902;8.162;2023-05-21T07:22:47;15.80;;;9.10;;
7659;SDS011;3872;47.902;8.162;2023-05-21T07:25:13;22.97;;;9.33;;
7659;SDS011;3872;47.902;8.162;2023-05-21T07:27:40;15.30;;;8.93;;
7659;SDS011;3872;47.902;8.162;2023-05-21T07:30:08;18.33;;;10.03;;
7659;SDS011;3872;47.902;8.162;2023-05-21T07:32:36;14.93;;;9.00;;
7659;SDS011;3872;47.902;8.162;2023-05-21T07:35:03;16.57;;;9.20;;
7659;SDS011;3872;47.902;8.162;2023-05-21T07:37:31;20.03;;;10.50;;
7659;SDS011;3872;47.902;8.162;2023-05-21T07:39:57;24.47;;;11.83;;
7659;SDS011;3872;47.902;8.162;2023-05-21T07:42:24;17.73;;;10.87;;
7659;SDS011;3872;47.902;8.162;2023-05-21T07:44:52;17.23;;;10.20;;
7659;SDS011;3872;47.902;8.162;2023-05-21T07:47:19;15.93;;;9.70;;
7659;SDS011;3872;47.902;8.162;2023-05-21T07:49:48;19.00;;;10.70;;
7659;SDS011;3872;47.902;8.162;2023-05-21T07:52:15;20.17;;;10.27;;
7659;SDS011;3872;47.902;8.162;2023-05-21T07:54:42;16.47;;;10.00;;
7659;SDS011;3872;47.902;8.162;2023-05-21T07:57:08;16.70;;;11.10;;
7659;SDS011;3872;47.902;8.162;2023-05-21T07:59:49;20.00;;;9.03;;
7659;SDS011;3872;47.902;8.162;2023-05-21T08:02:15;16.73;;;8.97;;
7659;SDS011;3872;47.902;8.162;2023-05-21T08:04:42;15.53;;;9.70;;
7659;SDS011;3872;47.902;8.162;2023-05-21T08:07:10;17.60;;;9.90;;
7659;SDS011;3872;47.902;8.162;2023-05-21T08:09:37;13.70;;;9.30;;
7659;SDS011;3872;47.902;8.162;2023-05-21T08:12:06;17.43;;;9.47;;
7659;SDS011;3872;47.902;8.162;2023-05-21T08:14:33;16.00;;;9.23;;
7659;SDS011;3872;47.902;8.162;2023-05-21T08:17:00;15.80;;;9.57;;
7659;SDS011;3872;47.902;8.162;2023-05-21T08:19:27;18.20;;;9.07;;
7659;SDS011;3872;47.902;8.162;2023-05-21T08:21:54;15.70;;;9.13;;
7659;SDS011;3872;47.902;8.162;2023-05-21T08:24:22;15.60;;;9.40;;
7659;SDS011;3872;47.902;8.162;2023-05-21T08:26:49;12.80;;;8.10;;
7659;SDS011;3872;47.902;8.162;2023-05-21T08:29:16;17.70;;;8.60;;
7659;SDS011;3872;47.902;8.162;2023-05-21T08:31:43;15.70;;;9.37;;
7659;SDS011;3872;47.902;8.162;2023-05-21T08:34:10;12.67;;;7.97;;
7659;SDS011;3872;47.902;8.162;2023-05-21T08:36:44;13.23;;;7.43;;
7659;SDS011;3872;47.902;8.162;2023-05-21T08:39:33;15.40;;;7.67;;
7659;SDS011;3872;47.902;8.162;2023-05-21T08:42:01;14.23;;;7.73;;
7659;SDS011;3872;47.902;8.162;2023-05-21T08:44:33;15.20;;;8.07;;
7659;SDS011;3872;47.902;8.162;2023-05-21T08:47:06;13.57;;;7.57;;
7659;SDS011;3872;47.902;8.162;2023-05-21T08:49:36;12.00;;;7.03;;
7659;SDS011;3872;47.902;8.162;2023-05-21T08:52:07;13.73;;;7.10;;
7659;SDS011;3872;47.902;8.162;2023-05-21T08:54:36;12.83;;;6.17;;
7659;SDS011;3872;47.902;8.162;2023-05-21T08:57:04;16.70;;;6.73;;
7659;SDS011;3872;47.902;8.162;2023-05-21T08:59:30;12.40;;;6.70;;
7659;SDS011;3872;47.902;8.162;2023-05-21T09:01:58;11.77;;;6.77;;
7659;SDS011;3872;47.902;8.162;2023-05-21T09:04:32;13.30;;;6.30;;
7659;SDS011;3872;47.902;8.162;2023-05-21T09:07:00;12.37;;;7.40;;
7659;SDS011;3872;47.902;8.162;2023-05-21T09:09:50;11.53;;;6.83;;
7659;SDS011;3872;47.902;8.162;2023-05-21T09:12:20;21.70;;;7.63;;
7659;SDS011;3872;47.902;8.162;2023-05-21T09:14:47;12.90;;;6.90;;
7659;SDS011;3872;47.902;8.162;2023-05-21T09:17:17;13.20;;;6.53;;
7659;SDS011;3872;47.902;8.162;2023-05-21T09:20:08;13.50;;;7.17;;
7659;SDS011;3872;47.902;8.162;2023-05-21T09:22:39;11.63;;;6.83;;
7659;SDS011;3872;47.902;8.162;2023-05-21T09:25:09;12.07;;;6.47;;
7659;SDS011;3872;47.902;8.162;2023-05-21T09:27:37;12.43;;;6.63;;
7659;SDS011;3872;47.902;8.162;2023-05-21T09:30:04;11.70;;;6.73;;
7659;SDS011;3872;47.902;8.162;2023-05-21T09:32:36;10.50;;;6.03;;
7659;SDS011;3872;47.902;8.162;2023-05-21T09:35:07;11.00;;;6.53;;
7659;SDS011;3872;47.902;8.162;2023-05-21T09:37:38;10.83;;;6.00;;
7659;SDS011;3872;47.902;8.162;2023-05-21T09:40:13;11.50;;;6.57;;
7659;SDS011;3872;47.902;8.162;2023-05-21T09:42:42;11.93;;;6.47;;
7659;SDS011;3872;47.902;8.162;2023-05-21T09:45:11;13.70;;;7.00;;
7659;SDS011;3872;47.902;8.162;2023-05-21T09:47:41;10.77;;;5.73;;
7659;SDS011;3872;47.902;8.162;2023-05-21T09:50:09;11.57;;;6.63;;
7659;SDS011;3872;47.902;8.162;2023-05-21T09:52:36;10.77;;;6.27;;
7659;SDS011;3872;47.902;8.162;2023-05-21T09:55:03;11.57;;;6.47;;
7659;SDS011;3872;47.902;8.162;2023-05-21T09:57:32;10.93;;;6.40;;
7659;SDS011;3872;47.902;8.162;2023-05-21T10:00:06;12.43;;;6.50;;
7659;SDS011;3872;47.902;8.162;2023-05-21T10:02:38;10.60;;;6.40;;
7659;SDS011;3872;47.902;8.162;2023-05-21T10:05:10;11.97;;;6.23;;
7659;SDS011;3872;47.902;8.162;2023-05-21T10:07:38;16.20;;;6.37;;
7659;SDS011;3872;47.902;8.162;2023-05-21T10:10:07;10.33;;;6.33;;
7659;SDS011;3872;47.902;8.162;2023-05-21T10:12:39;8.83;;;6.00;;
7659;SDS011;3872;47.902;8.162;2023-05-21T10:15:10;9.93;;;6.10;;
7659;SDS011;3872;47.902;8.162;2023-05-21T10:17:40;8.87;;;6.00;;
7659;SDS011;3872;47.902;8.162;2023-05-21T10:20:09;10.43;;;5.60;;
7659;SDS011;3872;47.902;8.162;2023-05-21T10:22:37;9.10;;;5.07;;
7659;SDS011;3872;47.902;8.162;2023-05-21T10:25:05;11.97;;;5.40;;
7659;SDS011;3872;47.902;8.162;2023-05-21T10:27:34;8.40;;;5.27;;
7659;SDS011;3872;47.902;8.162;2023-05-21T10:30:05;9.03;;;5.20;;
7659;SDS011;3872;47.902;8.162;2023-05-21T10:32:39;9.53;;;5.10;;
7659;SDS011;3872;47.902;8.162;2023-05-21T10:35:08;9.60;;;4.67;;
7659;SDS011;3872;47.902;8.162;2023-05-21T10:37:35;10.13;;;4.73;;
7659;SDS011;3872;47.902;8.162;2023-05-21T10:40:01;9.20;;;5.00;;
7659;SDS011;3872;47.902;8.162;2023-05-21T10:42:42;9.90;;;4.67;;
7659;SDS011;3872;47.902;8.162;2023-05-21T10:45:28;8.70;;;4.33;;
7659;SDS011;3872;47.902;8.162;2023-05-21T10:48:11;8.00;;;4.70;;
7659;SDS011;3872;47.902;8.162;2023-05-21T10:51:01;7.83;;;4.47;;
7659;SDS011;3872;47.902;8.162;2023-05-21T10:53:42;8.33;;;5.00;;
7659;SDS011;3872;47.902;8.162;2023-05-21T10:56:24;12.70;;;4.80;;
7659;SDS011;3872;47.902;8.162;2023-05-21T10:59:13;8.47;;;4.50;;
7659;SDS011;3872;47.902;8.162;2023-05-21T11:01:49;8.50;;;5.40;;
7659;SDS011;3872;47.902;8.162;2023-05-21T11:04:20;11.50;;;4.57;;
7659;SDS011;3872;47.902;8.162;2023-05-21T11:06:47;10.30;;;4.53;;
7659;SDS011;3872;47.902;8.162;2023-05-21T11:09:14;8.60;;;4.50;;
7659;SDS011;3872;47.902;8.162;2023-05-21T11:11:41;10.90;;;4.27;;
7659;SDS011;3872;47.902;8.162;2023-05-21T11:14:24;7.07;;;3.83;;
7659;SDS011;3872;47.902;8.162;2023-05-21T11:17:08;7.30;;;3.77;;
7659;SDS011;3872;47.902;8.162;2023-05-21T11:19:37;7.33;;;3.80;;
7659;SDS011;3872;47.902;8.162;2023-05-21T11:22:05;9.30;;;4.13;;
7659;SDS011;3872;47.902;8.162;2023-05-21T11:24:35;9.10;;;4.30;;
7659;SDS011;3872;47.902;8.162;2023-05-21T11:27:03;7.90;;;4.27;;
7659;SDS011;3872;47.902;8.162;2023-05-21T11:29:37;9.53;;;4.30;;
7659;SDS011;3872;47.902;8.162;2023-05-21T11:32:07;6.77;;;3.80;;
7659;SDS011;3872;47.902;8.162;2023-05-21T11:34:38;9.27;;;4.00;;
7659;SDS011;3872;47.902;8.162;2023-05-21T11:37:25;8.17;;;3.87;;
7659;SDS011;3872;47.902;8.162;2023-05-21T11:40:15;10.13;;;4.37;;
7659;SDS011;3872;47.902;8.162;2023-05-21T11:42:44;10.90;;;4.50;;
7659;SDS011;3872;47.902;8.162;2023-05-21T11:45:16;7.37;;;4.00;;
7659;SDS011;3872;47.902;8.162;2023-05-21T11:47:44;10.70;;;4.00;;
7659;SDS011;3872;47.902;8.162;2023-05-21T11:50:12;7.50;;;3.70;;
7659;SDS011;3872;47.902;8.162;2023-05-21T11:52:40;6.90;;;3.73;;
7659;SDS011;3872;47.902;8.162;2023-05-21T11:55:07;7.20;;;3.00;;
7659;SDS011;3872;47.902;8.162;2023-05-21T11:57:35;8.30;;;3.27;;
7659;SDS011;3872;47.902;8.162;2023-05-21T12:00:03;8.60;;;3.60;;
7659;SDS011;3872;47.902;8.162;2023-05-21T12:02:38;7.73;;;3.43;;
7659;SDS011;3872;47.902;8.162;2023-05-21T12:05:11;6.20;;;3.50;;
7659;SDS011;3872;47.902;8.162;2023-05-21T12:07:37;6.93;;;3.73;;
7659;SDS011;3872;47.902;8.162;2023-05-21T12:10:04;5.87;;;3.20;;
7659;SDS011;3872;47.902;8.162;2023-05-21T12:12:31;7.07;;;3.80;;
7659;SDS011;3872;47.902;8.162;2023-05-21T12:14:58;7.90;;;2.87;;
7659;SDS011;3872;47.902;8.162;2023-05-21T12:17:26;7.53;;;4.70;;
7659;SDS011;3872;47.902;8.162;2023-05-21T12:19:53;12.70;;;6.57;;
7659;SDS011;3872;47.902;8.162;2023-05-21T12:22:22;9.80;;;6.10;;
7659;SDS011;3872;47.902;8.162;2023-05-21T12:24:49;11.03;;;6.53;;
7659;SDS011;3872;47.902;8.162;2023-05-21T12:27:17;11.20;;;6.70;;
7659;SDS011;3872;47.902;8.162;2023-05-21T12:29:47;8.67;;;5.90;;
7659;SDS011;3872;47.902;8.162;2023-05-21T12:32:16;11.07;;;6.67;;
7659;SDS011;3872;47.902;8.162;2023-05-21T12:34:43;19.80;;;8.37;;
7659;SDS011;3872;47.902;8.162;2023-05-21T12:37:11;16.60;;;10.10;;
7659;SDS011;3872;47.902;8.162;2023-05-21T12:39:41;23.53;;;11.70;;
7659;SDS011;3872;47.902;8.162;2023-05-21T12:42:08;23.57;;;13.00;;
7659;SDS011;3872;47.902;8.162;2023-05-21T12:44:37;21.60;;;11.97;;
7659;SDS011;3872;47.902;8.162;2023-05-21T12:47:04;22.40;;;12.07;;
7659;SDS011;3872;47.902;8.162;2023-05-21T12:49:34;19.73;;;12.70;;
7659;SDS011;3872;47.902;8.162;2023-05-21T12:52:02;21.07;;;13.37;;
7659;SDS011;3872;47.902;8.162;2023-05-21T12:54:32;26.73;;;14.80;;
7659;SDS011;3872;47.902;8.162;2023-05-21T12:57:08;23.70;;;13.10;;
7659;SDS011;3872;47.902;8.162;2023-05-21T12:59:45;22.40;;;13.90;;
7659;SDS011;3872;47.902;8.162;2023-05-21T13:02:22;19.27;;;12.43;;
7659;SDS011;3872;47.902;8.162;2023-05-21T13:04:54;24.30;;;15.00;;
7659;SDS011;3872;47.902;8.162;2023-05-21T13:07:22;20.30;;;12.80;;
7659;SDS011;3872;47.902;8.162;2023-05-21T13:09:49;20.03;;;12.53;;
7659;SDS011;3872;47.902;8.162;2023-05-21T13:12:18;21.83;;;14.07;;
7659;SDS011;3872;47.902;8.162;2023-05-21T13:14:46;24.57;;;14.40;;
7659;SDS011;3872;47.902;8.162;2023-05-21T13:17:13;29.83;;;15.77;;
7659;SDS011;3872;47.902;8.162;2023-05-21T13:19:40;23.70;;;14.90;;
7659;SDS011;3872;47.902;8.162;2023-05-21T13:22:06;23.07;;;13.67;;
7659;SDS011;3872;47.902;8.162;2023-05-21T13:24:34;20.80;;;14.03;;
7659;SDS011;3872;47.902;8.162;2023-05-21T13:27:01;25.27;;;13.13;;
7659;SDS011;3872;47.902;8.162;2023-05-21T13:29:29;22.17;;;13.43;;
7659;SDS011;3872;47.902;8.162;2023-05-21T13:31:55;22.20;;;14.17;;
7659;SDS011;3872;47.902;8.162;2023-05-21T13:34:22;27.00;;;15.23;;
7659;SDS011;3872;47.902;8.162;2023-05-21T13:36:49;22.07;;;13.27;;
7659;SDS011;3872;47.902;8.162;2023-05-21T13:39:16;20.90;;;13.30;;
7659;SDS011;3872;47.902;8.162;2023-05-21T13:41:42;26.57;;;14.37;;
7659;SDS011;3872;47.902;8.162;2023-05-21T13:44:09;24.30;;;14.80;;
7659;SDS011;3872;47.902;8.162;2023-05-21T13:46:37;22.63;;;13.93;;
7659;SDS011;3872;47.902;8.162;2023-05-21T13:49:04;25.40;;;13.50;;
7659;SDS011;3872;47.902;8.162;2023-05-21T13:51:32;21.43;;;14.10;;
7659;SDS011;3872;47.902;8.162;2023-05-21T13:53:58;25.80;;;14.00;;
7659;SDS011;3872;47.902;8.162;2023-05-21T13:56:25;21.57;;;13.43;;
7659;SDS011;3872;47.902;8.162;2023-05-21T13:58:51;18.90;;;12.90;;
7659;SDS011;3872;47.902;8.162;2023-05-21T14:01:18;19.10;;;12.80;;
7659;SDS011;3872;47.902;8.162;2023-05-21T14:03:46;23.23;;;14.10;;
7659;SDS011;3872;47.902;8.162;2023-05-21T14:06:12;22.07;;;13.03;;
7659;SDS011;3872;47.902;8.162;2023-05-21T14:08:39;18.60;;;11.83;;
7659;SDS011;3872;47.902;8.162;2023-05-21T14:11:07;21.20;;;13.87;;
7659;SDS011;3872;47.902;8.162;2023-05-21T14:13:33;20.30;;;12.47;;
7659;SDS011;3872;47.902;8.162;2023-05-21T14:16:00;18.37;;;11.93;;
7659;SDS011;3872;47.902;8.162;2023-05-21T14:18:26;20.40;;;13.43;;
7659;SDS011;3872;47.902;8.162;2023-05-21T14:20:54;22.40;;;14.07;;
7659;SDS011;3872;47.902;8.162;2023-05-21T14:23:21;20.20;;;13.37;;
7659;SDS011;3872;47.902;8.162;2023-05-21T14:25:47;19.43;;;12.90;;
7659;SDS011;3872;47.902;8.162;2023-05-21T14:28:14;21.20;;;13.57;;
7659;SDS011;3872;47.902;8.162;2023-05-21T14:30:40;20.60;;;11.80;;
7659;SDS011;3872;47.902;8.162;2023-05-21T14:33:07;18.23;;;11.20;;
7659;SDS011;3872;47.902;8.162;2023-05-21T14:35:33;19.67;;;12.80;;
7659;SDS011;3872;47.902;8.162;2023-05-21T14:38:02;24.53;;;12.07;;
7659;SDS011;3872;47.902;8.162;2023-05-21T14:40:28;18.50;;;11.93;;
7659;SDS011;3872;47.902;8.162;2023-05-21T14:42:58;17.60;;;11.80;;
7659;SDS011;3872;47.902;8.162;2023-05-21T14:45:25;16.20;;;10.37;;
7659;SDS011;3872;47.902;8.162;2023-05-21T14:47:51;17.97;;;9.37;;
7659;SDS011;3872;47.902;8.162;2023-05-21T14:50:18;14.07;;;7.97;;
7659;SDS011;3872;47.902;8.162;2023-05-21T14:52:45;12.97;;;6.13;;
7659;SDS011;3872;47.902;8.162;2023-05-21T14:55:12;8.97;;;4.90;;
7659;SDS011;3872;47.902;8.162;2023-05-21T14:57:40;9.70;;;4.90;;
7659;SDS011;3872;47.902;8.162;2023-05-21T15:00:07;8.27;;;3.53;;
7659;SDS011;3872;47.902;8.162;2023-05-21T15:02:35;8.67;;;3.93;;
7659;SDS011;3872;47.902;8.162;2023-05-21T15:05:02;11.93;;;4.30;;
7659;SDS011;3872;47.902;8.162;2023-05-21T15:07:29;10.00;;;4.40;;
7659;SDS011;3872;47.902;8.162;2023-05-21T15:09:55;8.67;;;4.13;;